createdAt,value
2022-11-20T00:02:24.419Z,52.10
2022-11-20T00:05:38.808Z,54.30
2022-11-20T00:08:51.729Z,51.15
2022-11-20T00:12:03.430Z,52.50
2022-11-20T00:15:17.655Z,53.63
2022-11-20T00:18:29.376Z,54.50
2022-11-20T00:21:41.180Z,54.63
2022-11-20T00:24:52.990Z,53.15
2022-11-20T00:28:04.810Z,57.28
2022-11-20T00:31:19.031Z,57.60
2022-11-20T00:34:30.816Z,55.65
2022-11-20T00:37:42.924Z,53.73
2022-11-20T00:41:01.071Z,52.30
2022-11-20T00:44:15.094Z,50.85
2022-11-20T00:47:26.774Z,51.55
2022-11-20T00:50:38.418Z,50.03
2022-11-20T00:53:50.819Z,53.13
2022-11-20T00:57:02.875Z,52.30
2022-11-20T01:00:18.603Z,52.73
2022-11-20T01:03:30.232Z,53.15
2022-11-20T01:06:43.897Z,51.00
2022-11-20T01:09:55.769Z,50.33
2022-11-20T01:13:25.476Z,48.68
2022-11-20T01:16:39.614Z,49.20
2022-11-20T01:19:51.432Z,51.73
2022-11-20T01:23:03.210Z,52.08
2022-11-20T01:26:18.731Z,50.20
2022-11-20T01:29:31.614Z,53.75
2022-11-20T01:32:43.298Z,53.80
2022-11-20T01:35:55.207Z,51.15
2022-11-20T01:39:10.985Z,50.60
2022-11-20T01:42:37.741Z,51.78
2022-11-20T01:46:19.981Z,49.98
2022-11-20T01:49:37.116Z,49.70
2022-11-20T01:52:53.477Z,49.93
2022-11-20T01:56:08.856Z,50.68
2022-11-20T01:59:24.231Z,49.13
2022-11-20T02:02:36.501Z,51.80
2022-11-20T02:05:53.191Z,51.40
2022-11-20T02:09:04.963Z,48.65
2022-11-20T02:12:19.472Z,49.80
2022-11-20T02:15:31.414Z,49.70
2022-11-20T02:18:43.739Z,50.10
2022-11-20T02:22:01.672Z,47.33
2022-11-20T02:25:16.335Z,50.53
2022-11-20T02:28:29.057Z,48.25
2022-11-20T02:31:47.806Z,47.55
2022-11-20T02:35:00.026Z,50.70
2022-11-20T02:38:11.842Z,49.28
2022-11-20T02:41:24.957Z,53.95
2022-11-20T02:44:37.056Z,56.68
2022-11-20T02:47:48.758Z,54.95
2022-11-20T02:51:00.542Z,52.08
2022-11-20T02:54:12.634Z,52.73
2022-11-20T02:57:24.855Z,51.45
2022-11-20T03:00:37.269Z,50.10
2022-11-20T03:03:49.804Z,49.70
2022-11-20T03:07:01.826Z,51.83
2022-11-20T03:10:16.040Z,52.38
2022-11-20T03:13:28.148Z,52.75
2022-11-20T03:16:47.918Z,54.33
2022-11-20T03:19:59.818Z,55.43
2022-11-20T03:23:11.723Z,56.60
2022-11-20T03:26:26.505Z,55.30
2022-11-20T03:29:38.196Z,54.90
2022-11-20T03:32:49.883Z,51.55
2022-11-20T03:36:01.879Z,51.20
2022-11-20T03:39:19.440Z,52.45
2022-11-20T03:42:46.246Z,51.28
2022-11-20T03:46:00.415Z,40.50
2022-11-20T03:49:12.855Z,47.93
2022-11-20T03:52:33.120Z,48.93
2022-11-20T03:55:44.911Z,49.73
2022-11-20T03:58:56.988Z,48.80
2022-11-20T04:02:10.645Z,52.53
2022-11-20T04:05:22.659Z,54.13
2022-11-20T04:08:35.783Z,53.13
2022-11-20T04:11:48.556Z,54.23
2022-11-20T04:15:00.504Z,52.25
2022-11-20T04:18:12.648Z,52.18
2022-11-20T04:21:24.313Z,59.25
2022-11-20T04:24:36.464Z,54.90
2022-11-20T04:27:48.219Z,53.75
2022-11-20T04:31:00.139Z,51.78
2022-11-20T04:34:16.199Z,55.20
2022-11-20T04:37:27.897Z,58.78
2022-11-20T04:40:39.705Z,59.23
2022-11-20T04:43:57.744Z,57.23
2022-11-20T04:47:09.552Z,58.50
2022-11-20T04:50:21.795Z,57.18
2022-11-20T04:53:33.542Z,54.33
2022-11-20T04:56:45.954Z,58.73
2022-11-20T04:59:57.780Z,56.18
2022-11-20T05:03:10.009Z,53.93
2022-11-20T05:06:24.417Z,53.20
2022-11-20T05:09:36.726Z,57.18
2022-11-20T05:12:49.130Z,60.35
2022-11-20T05:16:10.031Z,56.98
2022-11-20T05:19:22.299Z,58.15
2022-11-20T05:22:34.366Z,55.48
2022-11-20T05:25:46.086Z,54.75
2022-11-20T05:28:58.252Z,56.43
2022-11-20T05:32:10.971Z,58.00
2022-11-20T05:35:23.107Z,59.00
2022-11-20T05:38:35.183Z,61.90
2022-11-20T05:41:47.254Z,59.03
2022-11-20T05:44:58.886Z,59.35
2022-11-20T05:48:15.389Z,63.58
2022-11-20T05:51:27.711Z,61.45
2022-11-20T05:54:39.825Z,57.80
2022-11-20T05:57:51.553Z,54.80
2022-11-20T06:01:09.861Z,53.03
2022-11-20T06:04:21.555Z,49.25
2022-11-20T06:07:33.516Z,51.98
2022-11-20T06:10:45.430Z,52.90
2022-11-20T06:13:57.450Z,55.15
2022-11-20T06:17:09.257Z,56.80
2022-11-20T06:20:22.010Z,56.33
2022-11-20T06:23:35.083Z,61.78
2022-11-20T06:26:46.991Z,63.90
2022-11-20T06:29:58.674Z,63.03
2022-11-20T06:33:10.808Z,60.33
2022-11-20T06:36:25.660Z,57.15
2022-11-20T06:39:37.503Z,58.98
2022-11-20T06:42:49.591Z,56.18
2022-11-20T06:46:03.295Z,61.23
2022-11-20T06:49:15.204Z,60.70
2022-11-20T06:52:27.205Z,62.90
2022-11-20T06:55:39.717Z,57.25
2022-11-20T06:58:51.714Z,59.10
2022-11-20T07:02:03.516Z,63.20
2022-11-20T07:05:16.378Z,69.48
2022-11-20T07:08:32.024Z,70.60
2022-11-20T07:11:43.736Z,62.65
2022-11-20T07:14:55.517Z,59.73
2022-11-20T07:18:10.827Z,59.13
2022-11-20T07:21:25.251Z,55.93
2022-11-20T07:24:38.974Z,59.03
2022-11-20T07:28:00.053Z,55.75
2022-11-20T07:31:18.799Z,58.88
2022-11-20T07:34:28.106Z,57.85
2022-11-20T07:37:42.630Z,57.10
2022-11-20T07:40:56.510Z,59.80
2022-11-20T07:44:08.917Z,70.73
2022-11-20T07:47:20.633Z,58.88
2022-11-20T07:50:32.931Z,58.55
2022-11-20T07:53:44.919Z,54.48
2022-11-20T07:56:57.070Z,57.98
2022-11-20T08:00:11.254Z,60.25
2022-11-20T08:03:26.060Z,57.78
2022-11-20T08:06:38.157Z,59.95
2022-11-20T08:09:49.961Z,54.58
2022-11-20T08:13:16.533Z,55.40
2022-11-20T08:16:29.081Z,60.23
2022-11-20T08:19:41.082Z,56.63
2022-11-20T08:22:53.229Z,53.65
2022-11-20T08:26:05.490Z,50.23
2022-11-20T08:29:17.984Z,52.80
2022-11-20T08:32:30.062Z,54.68
2022-11-20T08:35:45.262Z,55.20
2022-11-20T08:39:03.166Z,57.20
2022-11-20T08:42:17.338Z,55.50
2022-11-20T08:45:33.753Z,56.93
2022-11-20T08:48:46.211Z,56.38
2022-11-20T08:52:00.361Z,58.03
2022-11-20T08:55:15.270Z,58.53
2022-11-20T08:58:27.981Z,58.68
2022-11-20T09:01:41.896Z,60.35
2022-11-20T09:04:56.248Z,58.18
2022-11-20T09:08:09.631Z,73.80
2022-11-20T09:11:24.172Z,61.93
2022-11-20T09:14:38.586Z,60.23
2022-11-20T09:17:57.189Z,61.00
2022-11-20T09:21:11.852Z,59.90
2022-11-20T09:24:24.296Z,60.10
2022-11-20T09:27:36.685Z,59.13
2022-11-20T09:30:48.791Z,59.40
2022-11-20T09:34:01.371Z,59.00
2022-11-20T09:37:13.515Z,60.35
2022-11-20T09:40:30.737Z,61.55
2022-11-20T09:43:54.474Z,60.18
2022-11-20T09:47:12.139Z,63.65
2022-11-20T09:50:37.675Z,60.20
2022-11-20T09:54:00.769Z,59.68
2022-11-20T09:57:19.109Z,59.18
2022-11-20T10:00:32.123Z,61.95
2022-11-20T10:03:54.772Z,60.43
2022-11-20T10:10:37.476Z,63.10
2022-11-20T10:13:54.909Z,62.95
2022-11-20T10:17:17.055Z,67.83
2022-11-20T10:20:35.670Z,63.18
2022-11-20T10:24:15.567Z,63.40
2022-11-20T10:27:57.482Z,59.48
2022-11-20T10:31:16.692Z,60.75
2022-11-20T10:34:34.450Z,58.35
2022-11-20T10:37:52.006Z,63.30
2022-11-20T10:41:18.777Z,60.30
2022-11-20T10:44:51.242Z,60.33
2022-11-20T10:48:08.313Z,62.30
2022-11-20T10:51:29.996Z,62.28
2022-11-20T10:54:49.063Z,63.70
2022-11-20T10:58:08.133Z,60.65
2022-11-20T11:01:28.068Z,62.35
2022-11-20T11:04:45.571Z,63.85
2022-11-20T11:08:00.510Z,63.63
2022-11-20T11:11:35.443Z,62.53
2022-11-20T11:14:59.465Z,61.13
2022-11-20T11:18:14.011Z,64.00
2022-11-20T11:21:32.975Z,66.45
2022-11-20T11:24:49.075Z,65.75
2022-11-20T11:28:04.026Z,66.70
2022-11-20T11:31:16.349Z,67.08
2022-11-20T11:34:36.000Z,59.20
2022-11-20T11:37:49.966Z,61.73
2022-11-20T11:41:04.426Z,66.53
2022-11-20T11:44:41.415Z,63.43
2022-11-20T11:47:58.464Z,65.57
2022-11-20T11:51:14.532Z,66.13
2022-11-20T11:54:31.934Z,53.40
2022-11-20T11:57:49.621Z,65.35
2022-11-20T12:01:21.273Z,63.75
2022-11-20T12:04:47.753Z,62.33
2022-11-20T12:08:08.143Z,64.70
2022-11-20T12:11:25.635Z,63.50
2022-11-20T12:14:42.443Z,66.03
2022-11-20T12:17:54.512Z,62.80
2022-11-20T12:21:17.203Z,61.83
2022-11-20T12:24:44.885Z,64.90
2022-11-20T12:28:34.662Z,66.15
2022-11-20T12:32:01.186Z,62.60
2022-11-20T12:35:26.488Z,64.00
2022-11-20T12:39:04.866Z,63.83
2022-11-20T12:42:51.758Z,64.98
2022-11-20T12:46:25.999Z,67.05
2022-11-20T12:49:43.612Z,67.53
2022-11-20T12:52:59.618Z,67.53
2022-11-20T12:56:20.307Z,66.37
2022-11-20T12:59:43.008Z,69.38
2022-11-20T13:03:33.168Z,67.08
2022-11-20T13:06:46.294Z,69.53
2022-11-20T13:09:59.989Z,64.35
2022-11-20T13:13:20.269Z,65.03
2022-11-20T13:16:38.982Z,65.85
2022-11-20T13:19:58.303Z,66.80
2022-11-20T13:23:09.982Z,66.20
2022-11-20T13:26:28.800Z,67.30
2022-11-20T13:29:41.614Z,64.10
2022-11-20T13:33:02.715Z,63.83
2022-11-20T13:36:27.648Z,64.30
2022-11-20T13:39:41.909Z,67.00
2022-11-20T13:43:02.320Z,67.65
2022-11-20T13:46:16.076Z,64.58
2022-11-20T13:49:41.030Z,65.33
2022-11-20T13:52:56.473Z,65.85
2022-11-20T13:56:13.189Z,68.00
2022-11-20T13:59:41.681Z,68.60
2022-11-20T14:03:02.439Z,71.00
2022-11-20T14:06:23.077Z,68.45
2022-11-20T14:09:37.566Z,67.43
2022-11-20T14:12:49.250Z,68.45
2022-11-20T14:16:04.694Z,72.03
2022-11-20T14:19:39.598Z,72.85
2022-11-20T14:22:58.784Z,66.00
2022-11-20T14:26:10.680Z,69.08
2022-11-20T14:29:24.486Z,62.83
2022-11-20T14:32:38.203Z,70.15
2022-11-20T14:35:55.070Z,66.63
2022-11-20T14:42:24.933Z,68.95
2022-11-20T14:45:37.147Z,64.33
2022-11-20T14:48:53.215Z,63.73
2022-11-20T14:52:15.436Z,66.43
2022-11-20T14:55:37.149Z,70.15
2022-11-20T14:58:48.809Z,64.48
2022-11-20T15:02:08.217Z,68.53
2022-11-20T15:05:21.741Z,71.38
2022-11-20T15:08:33.930Z,75.75
2022-11-20T15:11:45.790Z,76.98
2022-11-20T15:14:57.784Z,71.55
2022-11-20T15:18:10.464Z,70.70
2022-11-20T15:21:26.261Z,71.05
2022-11-20T15:24:38.114Z,71.23
2022-11-20T15:27:51.050Z,69.50
2022-11-20T15:31:03.437Z,72.83
2022-11-20T15:34:18.850Z,72.28
2022-11-20T15:37:30.515Z,70.03
2022-11-20T15:40:42.564Z,74.25
2022-11-20T15:43:54.320Z,73.63
2022-11-20T15:47:06.243Z,76.90
2022-11-20T15:50:23.613Z,74.63
2022-11-20T15:53:35.308Z,72.13
2022-11-20T15:56:47.199Z,71.03
2022-11-20T16:00:00.500Z,74.78
2022-11-20T16:03:13.144Z,76.85
2022-11-20T16:06:24.759Z,74.90
2022-11-20T16:09:36.986Z,73.05
2022-11-20T16:13:03.380Z,75.03
2022-11-20T16:16:20.397Z,78.40
2022-11-20T16:19:32.150Z,74.45
2022-11-20T16:22:43.915Z,72.08
2022-11-20T16:25:56.686Z,70.23
2022-11-20T16:29:21.228Z,71.20
2022-11-20T16:32:44.939Z,76.65
2022-11-20T16:35:56.765Z,73.73
2022-11-20T16:43:16.330Z,72.30
2022-11-20T16:50:21.569Z,72.70
2022-11-20T16:57:15.830Z,76.83
2022-11-20T17:00:37.098Z,73.20
2022-11-20T17:08:15.803Z,76.00
2022-11-20T17:15:58.359Z,75.43
2022-11-20T17:19:10.704Z,74.93
2022-11-20T17:22:22.628Z,76.05
2022-11-20T17:25:36.418Z,75.78
2022-11-20T17:28:48.591Z,78.40
2022-11-20T17:32:09.074Z,72.83
2022-11-20T17:39:02.281Z,72.50
2022-11-20T17:46:52.752Z,74.95
2022-11-20T17:50:04.680Z,72.70
2022-11-20T17:53:16.672Z,77.33
2022-11-20T17:56:43.523Z,83.28
2022-11-20T17:59:56.354Z,81.65
2022-11-20T18:03:09.380Z,78.95
2022-11-20T18:06:39.118Z,75.20
2022-11-20T18:09:51.953Z,79.25
2022-11-20T18:13:03.848Z,81.60
2022-11-20T18:16:27.354Z,87.17
2022-11-20T18:19:55.545Z,82.55
2022-11-20T18:22:58.935Z,82.23
2022-11-20T18:26:13.575Z,81.83
2022-11-20T18:29:25.952Z,82.93
2022-11-20T18:32:40.219Z,77.90
2022-11-20T18:35:52.672Z,79.65
2022-11-20T18:39:05.985Z,76.03
2022-11-20T18:42:35.899Z,74.28
2022-11-20T18:45:47.681Z,79.73
2022-11-20T18:49:01.314Z,80.22
2022-11-20T18:52:13.749Z,75.85
2022-11-20T18:55:26.353Z,75.58
2022-11-20T18:58:41.148Z,72.15
2022-11-20T19:09:18.586Z,76.08
2022-11-20T19:16:30.224Z,77.75
2022-11-20T19:19:44.749Z,78.28
2022-11-20T19:22:58.920Z,81.68
2022-11-20T19:26:11.994Z,76.00
2022-11-20T19:29:25.534Z,77.08
2022-11-20T19:32:38.049Z,75.80
2022-11-20T19:35:58.558Z,76.98
2022-11-20T19:39:14.887Z,74.53
2022-11-20T19:42:26.802Z,76.80
2022-11-20T19:45:39.389Z,77.65
2022-11-20T19:48:53.354Z,73.63
2022-11-20T19:52:05.103Z,81.70
2022-11-20T19:55:17.143Z,81.13
2022-11-20T19:58:30.979Z,81.78
2022-11-20T20:05:23.933Z,79.90
2022-11-20T20:08:36.085Z,80.35
2022-11-20T20:11:50.804Z,80.68
2022-11-20T20:15:02.686Z,78.28
2022-11-20T20:18:14.707Z,84.33
2022-11-20T20:21:27.143Z,80.73
2022-11-20T20:24:40.645Z,81.18
2022-11-20T20:27:54.651Z,77.40
2022-11-20T20:31:16.606Z,75.05
2022-11-20T20:38:09.126Z,77.00
2022-11-20T20:41:26.495Z,80.55
2022-11-20T20:48:03.161Z,76.83
2022-11-20T20:51:14.924Z,77.48
2022-11-20T20:54:35.533Z,75.73
2022-11-20T20:57:47.425Z,78.38
2022-11-20T21:05:00.362Z,78.43
2022-11-20T21:12:07.411Z,73.95
2022-11-20T21:15:19.695Z,73.10
2022-11-20T21:18:32.231Z,76.43
2022-11-20T21:21:58.833Z,75.35
2022-11-20T21:25:11.630Z,76.30
2022-11-20T21:28:23.565Z,78.80
2022-11-20T21:31:35.378Z,77.13
2022-11-20T21:34:47.076Z,75.53
2022-11-20T21:37:58.782Z,75.28
2022-11-20T21:41:12.872Z,76.10
2022-11-20T21:44:31.846Z,81.30
2022-11-20T21:47:41.530Z,79.90
2022-11-20T21:50:53.665Z,72.95
2022-11-20T21:54:05.442Z,75.70
2022-11-20T21:57:17.141Z,71.90
2022-11-20T22:00:29.289Z,81.93
2022-11-20T22:03:41.052Z,77.65
2022-11-20T22:06:52.719Z,75.48
2022-11-20T22:10:04.353Z,73.38
2022-11-20T22:13:30.710Z,79.05
2022-11-20T22:16:43.385Z,78.90
2022-11-20T22:19:55.095Z,75.20
2022-11-20T22:23:06.738Z,73.18
2022-11-20T22:26:21.211Z,74.15
2022-11-20T22:29:33.001Z,77.83
2022-11-20T22:32:44.792Z,76.43
2022-11-20T22:35:56.416Z,76.23
2022-11-20T22:39:10.586Z,76.48
2022-11-20T22:42:22.272Z,72.35
2022-11-20T22:45:34.144Z,76.53
2022-11-20T22:48:48.781Z,80.05
2022-11-20T22:52:02.851Z,75.80
2022-11-20T22:55:16.628Z,77.58
2022-11-20T22:58:28.690Z,75.85
2022-11-20T23:01:44.593Z,77.88
2022-11-20T23:04:56.321Z,79.43
2022-11-20T23:08:08.094Z,77.38
2022-11-20T23:11:22.553Z,74.20
2022-11-20T23:14:34.955Z,74.28
2022-11-20T23:17:46.780Z,73.78
2022-11-20T23:20:58.535Z,79.98
2022-11-20T23:24:12.571Z,74.20
2022-11-20T23:27:28.243Z,74.88
2022-11-20T23:30:37.991Z,74.58
2022-11-20T23:33:51.469Z,77.25
2022-11-20T23:37:03.278Z,74.55
2022-11-20T23:40:17.721Z,75.30
2022-11-20T23:43:30.239Z,74.50
2022-11-20T23:46:41.943Z,73.05
2022-11-20T23:49:53.606Z,75.78
2022-11-20T23:53:05.655Z,77.55
2022-11-20T23:56:18.560Z,77.13
2022-11-20T23:59:30.252Z,73.53
